Bellefontaine, OH

8:22 AM EST on December 11, 2016 (GMT -0500)
Bellefontaine

Weather History for KEDJ - November, 2011

Change the Weather History Date:

Thursday, November 24, 2011

  Actual Average (KDAY) Record (KDAY)
Temperature  
Mean Temperature 40 °F -  
Max Temperature 44 °F 45 °F 68 °F (1931)
Min Temperature 37 °F 29 °F 3 °F (1950)
Degree Days  
Heating Degree Days 24    
Moisture  
Dew Point 39 °F    
Average Humidity 97    
Maximum Humidity 100    
Minimum Humidity 81    
Precipitation  
Precipitation 0.00 in - - ()
Sea Level Pressure  
Sea Level Pressure 30.26 in    
Wind  
Wind Speed 10 mph (SSW)    
Max Wind Speed 15 mph    
Max Gust Speed 20 mph    
Visibility 5 miles    
Events      
Averages and records for this station are not official NWS values.
T = Trace of Precipitation, MM = Missing Value Source: NWS Daily Summary

Daily Weather History Graph

Daily Weather History Graph

Search for Another Location

Airport or City:

Trip Planner

Search our weather history database for the weather conditions in past years. The results will help you decide how hot, cold, wet, or windy it might be!

Date:

Astronomy

Nov. 24, 2011 Rise Set
Actual Time 7:31 AM EST 5:12 PM EST
Civil Twilight 7:01 AM EST 5:42 PM EST
Nautical Twilight 6:28 AM EST 6:15 PM EST
Astronomical Twilight 5:55 AM EST 6:48 PM EST
Moon 6:48 AM EST (11/24) 4:42 PM EST (11/24)
Length of Visible Light 10h 40m
Length of Day
9h 41m
Waning Crescent, 0% of the Moon is Illuminated
Nov 24
Waning Crescent
Nov 25
New
Dec 2
First Quarter
Dec 10
Full
Dec 17
Last Quarter

Hourly Weather History & Observations

Time (EST) Temp. Windchill Dew Point Humidity Pressure Visibility Wind Dir Wind Speed Gust Speed Precip Events Conditions
12:10 AM 37.4 °F 30.8 °F 37.4 °F 100% 30.25 in 1.5 mi West 9.2 mph - 0.00 in   Overcast
12:30 AM 37.4 °F 32.1 °F 37.4 °F 100% 30.25 in 1.8 mi West 6.9 mph - 0.00 in   Overcast
12:55 AM 37.4 °F 30.3 °F 37.4 °F 100% 30.25 in 2.0 mi West 10.4 mph - 0.00 in   Overcast
1:15 AM 37.4 °F 32.1 °F 37.4 °F 100% 30.25 in 3.0 mi West 6.9 mph - 0.00 in   Overcast
1:30 AM 39.2 °F 33.0 °F 39.2 °F 100% 30.25 in 3.0 mi West 9.2 mph - 0.00 in   Overcast
1:55 AM 39.2 °F 33.0 °F 39.2 °F 100% 30.25 in 3.0 mi WSW 9.2 mph - 0.00 in   Overcast
2:10 AM 39.2 °F 32.0 °F 39.2 °F 100% 30.25 in 3.0 mi WSW 11.5 mph - 0.00 in   Overcast
2:30 AM 39.2 °F 33.0 °F 39.2 °F 100% 30.25 in 3.0 mi WSW 9.2 mph - 0.00 in   Overcast
2:55 AM 39.2 °F 33.6 °F 39.2 °F 100% 30.24 in 5.0 mi WSW 8.1 mph - 0.00 in   Overcast
3:10 AM 39.2 °F 34.2 °F 39.2 °F 100% 30.24 in 4.0 mi SW 6.9 mph - 0.00 in   Overcast
3:30 AM 39.2 °F 33.6 °F 39.2 °F 100% 30.24 in 5.0 mi WSW 8.1 mph - 0.00 in   Overcast
3:55 AM 37.4 °F 30.8 °F 37.4 °F 100% 30.23 in 4.0 mi SW 9.2 mph - 0.00 in   Overcast
4:10 AM 37.4 °F 31.4 °F 37.4 °F 100% 30.24 in 4.0 mi SW 8.1 mph - 0.00 in   Overcast
4:30 AM 37.4 °F 31.4 °F 37.4 °F 100% 30.24 in 5.0 mi WSW 8.1 mph - 0.00 in   Overcast
5:15 AM 37.4 °F 31.4 °F 37.4 °F 100% 30.24 in 5.0 mi SW 8.1 mph - 0.00 in   Overcast
5:35 AM 37.4 °F 32.1 °F 37.4 °F 100% 30.25 in 5.0 mi SW 6.9 mph - 0.00 in   Overcast
5:50 AM 37.4 °F 30.3 °F 37.4 °F 100% 30.25 in 5.0 mi SW 10.4 mph - 0.00 in   Overcast
6:10 AM 37.4 °F 29.8 °F 37.4 °F 100% 30.26 in 5.0 mi SSW 11.5 mph - 0.00 in   Overcast
6:55 AM 37.4 °F 29.3 °F 37.4 °F 100% 30.26 in 5.0 mi SSW 12.7 mph - 0.00 in   Overcast
7:15 AM 37.4 °F 29.8 °F 37.4 °F 100% 30.26 in 5.0 mi SSW 11.5 mph - 0.00 in   Overcast
7:30 AM 37.4 °F 29.8 °F 37.4 °F 100% 30.27 in 5.0 mi SSW 11.5 mph - 0.00 in   Overcast
7:55 AM 37.4 °F 29.8 °F 37.4 °F 100% 30.28 in 4.0 mi SSW 11.5 mph - 0.00 in   Overcast
8:30 AM 37.4 °F 29.8 °F 37.4 °F 100% 30.29 in 2.0 mi SSW 11.5 mph 16.1 mph 0.00 in   Overcast
8:55 AM 37.4 °F 29.3 °F 37.4 °F 100% 30.29 in 1.5 mi South 12.7 mph - 0.00 in   Overcast
9:15 AM 37.4 °F 29.8 °F 37.4 °F 100% 30.29 in 2.0 mi SSW 11.5 mph - 0.00 in   Overcast
9:30 AM 39.2 °F 31.2 °F 39.2 °F 100% 30.29 in 2.0 mi SSW 13.8 mph - 0.00 in   Overcast
9:55 AM 39.2 °F 31.2 °F 39.2 °F 100% 30.29 in 2.5 mi South 13.8 mph - 0.00 in   Overcast
10:10 AM 39.2 °F 31.2 °F 39.2 °F 100% 30.29 in 2.5 mi South 13.8 mph 18.4 mph 0.00 in   Overcast
10:30 AM 39.2 °F 30.8 °F 39.2 °F 100% 30.30 in 3.0 mi SSW 15.0 mph 19.6 mph 0.00 in   Overcast
10:55 AM 39.2 °F 31.6 °F 39.2 °F 100% 30.31 in 3.0 mi SSW 12.7 mph - 0.00 in   Overcast
11:10 AM 39.2 °F 32.5 °F 39.2 °F 100% 30.30 in 3.0 mi SSW 10.4 mph - 0.00 in   Overcast
11:30 AM 41.0 °F 33.9 °F 41.0 °F 100% 30.30 in 3.0 mi SSW 12.7 mph - 0.00 in   Overcast
11:55 AM 41.0 °F 33.9 °F 41.0 °F 100% 30.29 in 3.0 mi SSW 12.7 mph - 0.00 in   Overcast
12:10 PM 41.0 °F 33.9 °F 41.0 °F 100% 30.29 in 4.0 mi SSW 12.7 mph - 0.00 in   Overcast
12:30 PM 41.0 °F 33.1 °F 41.0 °F 100% 30.28 in 5.0 mi SSW 15.0 mph - 0.00 in   Overcast
12:55 PM 42.8 °F 35.8 °F 42.8 °F 100% 30.28 in 5.0 mi SW 13.8 mph - 0.00 in   Overcast
1:10 PM 42.8 °F 36.6 °F 42.8 °F 100% 30.28 in 5.0 mi South 11.5 mph - 0.00 in   Overcast
1:30 PM 42.8 °F 37.0 °F 41.0 °F 93% 30.27 in 5.0 mi SSW 10.4 mph - 0.00 in   Overcast
1:55 PM 42.8 °F 36.2 °F 41.0 °F 93% 30.27 in 7.0 mi SSW 12.7 mph - 0.00 in   Overcast
2:10 PM 42.8 °F 37.0 °F 41.0 °F 93% 30.26 in 7.0 mi SSW 10.4 mph - 0.00 in   Overcast
2:30 PM 42.8 °F 36.6 °F 41.0 °F 93% 30.26 in 7.0 mi SSW 11.5 mph - 0.00 in   Overcast
3:15 PM 44.6 °F 38.8 °F 41.0 °F 87% 30.25 in 8.0 mi South 11.5 mph - 0.00 in   Overcast
3:30 PM 44.6 °F 39.2 °F 41.0 °F 87% 30.24 in 9.0 mi South 10.4 mph - 0.00 in   Mostly Cloudy
3:55 PM 44.6 °F 37.8 °F 39.2 °F 81% 30.23 in 9.0 mi South 15.0 mph - 0.00 in   Clear
4:10 PM 44.6 °F 39.2 °F 39.2 °F 81% 30.23 in 9.0 mi South 10.4 mph - 0.00 in   Clear
4:30 PM 44.6 °F 38.8 °F 41.0 °F 87% 30.24 in 9.0 mi South 11.5 mph - 0.00 in   Clear
4:55 PM 42.8 °F 36.6 °F 39.2 °F 87% 30.24 in 8.0 mi South 11.5 mph - 0.00 in   Clear
5:15 PM 42.8 °F 36.6 °F 39.2 °F 87% 30.24 in 7.0 mi South 11.5 mph - 0.00 in   Clear
5:50 PM 41.0 °F 34.7 °F 39.2 °F 93% 30.24 in 8.0 mi South 10.4 mph - 0.00 in   Clear
6:10 PM 41.0 °F 35.2 °F 39.2 °F 93% 30.24 in 8.0 mi South 9.2 mph - 0.00 in   Clear
6:30 PM 39.2 °F 33.0 °F 39.2 °F 100% 30.24 in 7.0 mi South 9.2 mph - 0.00 in   Clear
6:55 PM 39.2 °F 32.0 °F 39.2 °F 100% 30.23 in 6.0 mi South 11.5 mph - 0.00 in   Clear
7:10 PM 39.2 °F 33.0 °F 39.2 °F 100% 30.24 in 5.0 mi South 9.2 mph - 0.00 in   Clear
7:55 PM 39.2 °F 32.0 °F 39.2 °F 100% 30.23 in 5.0 mi South 11.5 mph - 0.00 in   Clear
8:30 PM 39.2 °F 32.0 °F 39.2 °F 100% 30.23 in 5.0 mi South 11.5 mph - 0.00 in   Clear
8:55 PM 39.2 °F 32.5 °F 39.2 °F 100% 30.22 in 5.0 mi South 10.4 mph - 0.00 in   Partly Cloudy
9:30 PM 39.2 °F 34.2 °F 39.2 °F 100% 30.22 in 5.0 mi South 6.9 mph - 0.00 in   Partly Cloudy
9:55 PM 39.2 °F 33.6 °F 39.2 °F 100% 30.22 in 5.0 mi SSE 8.1 mph - 0.00 in   Clear
10:10 PM 39.2 °F 33.0 °F 39.2 °F 100% 30.22 in 5.0 mi South 9.2 mph - 0.00 in   Clear
10:30 PM 39.2 °F 33.6 °F 39.2 °F 100% 30.21 in 5.0 mi SSE 8.1 mph - 0.00 in   Clear
10:55 PM 39.2 °F 32.5 °F 39.2 °F 100% 30.21 in 6.0 mi South 10.4 mph - 0.00 in   Clear
11:10 PM 39.2 °F 32.5 °F 39.2 °F 100% 30.21 in 8.0 mi South 10.4 mph - 0.00 in   Clear
11:30 PM 39.2 °F 33.0 °F 39.2 °F 100% 30.20 in 7.0 mi South 9.2 mph - 0.00 in   Clear